DAL95 KMIA-MYEM
Flight info
| Callsign | DAL95 |
|---|---|
| Flight time | N/A |
| Altitude | 23000 |
| Route | KLADA2 RAJAY |
| Aircraft | A339/H-SADE1E2E3GHIJ3J5M1P2RWXY/LB2D1 |
Departure
| Time | 2026-04-30 22:45 |
|---|---|
| Airport | Miami International Airport (KMIA) |
Arrival
| Time | N/A |
|---|---|
| Airport | Governor's Harbour Airport (MYEM) |
| Time | Latitude | Longitude | Altitude | Speed | Heading |
|---|---|---|---|---|---|
| 2026-04-30 22:19 | 25.79518 | -80.28487 | 20 ft | 0 kts | 83° |
| 2026-04-30 22:29 | 25.79517 | -80.28488 | 20 ft | 1 kts | 83° |
| 2026-04-30 22:29 | 25.79516 | -80.28504 | 20 ft | 2 kts | 83° |
| 2026-04-30 22:30 | 25.79518 | -80.28567 | 20 ft | 2 kts | 138° |
| 2026-04-30 22:31 | 25.79541 | -80.28577 | 20 ft | 0 kts | 178° |
| 2026-04-30 22:35 | 25.79531 | -80.28577 | 20 ft | 2 kts | 177° |
| 2026-04-30 22:36 | 25.79418 | -80.28569 | 20 ft | 7 kts | 177° |
| 2026-04-30 22:36 | 25.79365 | -80.28569 | 20 ft | 7 kts | 193° |
| 2026-04-30 22:37 | 25.79302 | -80.28725 | 21 ft | 6 kts | 264° |
| 2026-04-30 22:37 | 25.79312 | -80.28770 | 22 ft | 6 kts | 292° |
| 2026-04-30 22:37 | 25.79356 | -80.28864 | 22 ft | 8 kts | 299° |
| 2026-04-30 22:38 | 25.79431 | -80.29009 | 20 ft | 12 kts | 301° |
| 2026-04-30 22:38 | 25.79520 | -80.29182 | 20 ft | 13 kts | 299° |
| 2026-04-30 22:39 | 25.79565 | -80.29273 | 20 ft | 13 kts | 300° |
| 2026-04-30 22:39 | 25.79704 | -80.29546 | 20 ft | 13 kts | 300° |
| 2026-04-30 22:40 | 25.79783 | -80.29698 | 20 ft | 0 kts | 300° |
| 2026-04-30 22:41 | 25.79792 | -80.29716 | 20 ft | 3 kts | 300° |
| 2026-04-30 22:42 | 25.79970 | -80.30062 | 20 ft | 17 kts | 301° |
| 2026-04-30 22:43 | 25.80060 | -80.30104 | 20 ft | 5 kts | 52° |
| 2026-04-30 22:43 | 25.80092 | -80.29570 | 20 ft | 89 kts | 88° |
| 2026-04-30 22:44 | 25.80185 | -80.27428 | 22 ft | 184 kts | 89° |
| 2026-04-30 22:45 | 25.78864 | -80.22146 | 1942 ft | 181 kts | 124° |
| 2026-04-30 22:45 | 25.77545 | -80.19575 | 2323 ft | 201 kts | 120° |
| 2026-04-30 22:46 | 25.76142 | -80.16682 | 2721 ft | 223 kts | 120° |
| 2026-04-30 22:47 | 25.72966 | -80.09888 | 3618 ft | 274 kts | 111° |
| 2026-04-30 22:47 | 25.71614 | -80.05818 | 4407 ft | 286 kts | 110° |
| 2026-04-30 22:48 | 25.70237 | -80.01633 | 5393 ft | 292 kts | 109° |
| 2026-04-30 22:49 | 25.68128 | -79.95256 | 6852 ft | 298 kts | 109° |
| 2026-04-30 22:49 | 25.65964 | -79.88734 | 8259 ft | 304 kts | 109° |
| 2026-04-30 22:50 | 25.63002 | -79.79829 | 10007 ft | 312 kts | 109° |
| 2026-04-30 22:51 | 25.61463 | -79.75214 | 10507 ft | 330 kts | 109° |
| 2026-04-30 22:51 | 25.59827 | -79.70270 | 10897 ft | 352 kts | 107° |
| 2026-04-30 22:52 | 25.59101 | -79.67651 | 11090 ft | 363 kts | 105° |
| 2026-04-30 22:52 | 25.57675 | -79.62129 | 11536 ft | 382 kts | 104° |
| 2026-04-30 22:53 | 25.56197 | -79.56404 | 12363 ft | 388 kts | 104° |
| 2026-04-30 22:53 | 25.54706 | -79.50650 | 13200 ft | 394 kts | 104° |
| 2026-04-30 22:53 | 25.53937 | -79.47691 | 13619 ft | 397 kts | 104° |
| 2026-04-30 22:54 | 25.52400 | -79.41773 | 14461 ft | 403 kts | 104° |
| 2026-04-30 22:55 | 25.50053 | -79.32763 | 15748 ft | 410 kts | 105° |
| 2026-04-30 22:55 | 25.48456 | -79.26650 | 16600 ft | 415 kts | 105° |
| 2026-04-30 22:56 | 25.46850 | -79.20515 | 17422 ft | 420 kts | 105° |
| 2026-04-30 22:56 | 25.44393 | -79.11153 | 18587 ft | 427 kts | 105° |
| 2026-04-30 22:57 | 25.42720 | -79.04782 | 19306 ft | 432 kts | 105° |
| 2026-04-30 22:57 | 25.41039 | -78.98399 | 19999 ft | 436 kts | 105° |
| 2026-04-30 22:58 | 25.39329 | -78.91924 | 20640 ft | 441 kts | 105° |
| 2026-04-30 22:59 | 25.36735 | -78.82115 | 21545 ft | 447 kts | 105° |
| 2026-04-30 22:59 | 25.34101 | -78.72193 | 22432 ft | 451 kts | 105° |